sensor_id;sensor_type;location;lat;lon;timestamp;pressure;altitude;pressure_sealevel;temperature;humidity
73171;BME280;61381;50.118;19.962;2023-12-20T00:00:26;97931.50;;;9.57;50.24
73171;BME280;61381;50.118;19.962;2023-12-20T00:05:48;97918.75;;;10.01;50.09
73171;BME280;61381;50.118;19.962;2023-12-20T00:10:49;97923.94;;;9.78;51.25
73171;BME280;61381;50.118;19.962;2023-12-20T00:15:50;97913.66;;;9.53;52.79
73171;BME280;61381;50.118;19.962;2023-12-20T00:20:52;97907.56;;;9.66;50.21
73171;BME280;61381;50.118;19.962;2023-12-20T00:25:53;97915.09;;;9.64;49.16
73171;BME280;61381;50.118;19.962;2023-12-20T00:30:54;97893.09;;;9.67;49.66
73171;BME280;61381;50.118;19.962;2023-12-20T00:35:56;97881.34;;;9.82;48.84
73171;BME280;61381;50.118;19.962;2023-12-20T00:40:57;97881.88;;;10.12;48.40
73171;BME280;61381;50.118;19.962;2023-12-20T00:45:57;97874.31;;;9.86;49.02
73171;BME280;61381;50.118;19.962;2023-12-20T00:51:00;97874.94;;;9.97;48.43
73171;BME280;61381;50.118;19.962;2023-12-20T00:56:01;97876.81;;;9.96;48.07
73171;BME280;61381;50.118;19.962;2023-12-20T01:01:02;97879.72;;;10.28;48.30
73171;BME280;61381;50.118;19.962;2023-12-20T01:06:04;97870.41;;;10.53;47.25
73171;BME280;61381;50.118;19.962;2023-12-20T01:11:05;97878.75;;;10.51;47.08
73171;BME280;61381;50.118;19.962;2023-12-20T01:16:06;97871.69;;;10.28;47.78
73171;BME280;61381;50.118;19.962;2023-12-20T01:21:10;97855.72;;;10.50;46.08
73171;BME280;61381;50.118;19.962;2023-12-20T01:26:11;97853.16;;;10.31;46.99
73171;BME280;61381;50.118;19.962;2023-12-20T01:31:12;97848.56;;;10.32;46.59
73171;BME280;61381;50.118;19.962;2023-12-20T01:36:14;97821.81;;;10.18;47.20
73171;BME280;61381;50.118;19.962;2023-12-20T01:41:15;97803.78;;;9.96;46.50
73171;BME280;61381;50.118;19.962;2023-12-20T01:46:17;97797.81;;;10.55;46.55
73171;BME280;61381;50.118;19.962;2023-12-20T01:51:19;97784.88;;;10.06;45.50
73171;BME280;61381;50.118;19.962;2023-12-20T01:56:20;97783.16;;;9.69;46.36
73171;BME280;61381;50.118;19.962;2023-12-20T02:01:22;97784.81;;;9.64;46.94
73171;BME280;61381;50.118;19.962;2023-12-20T02:06:24;97771.56;;;10.01;46.24
73171;BME280;61381;50.118;19.962;2023-12-20T02:11:29;97771.69;;;9.96;46.05
73171;BME280;61381;50.118;19.962;2023-12-20T02:16:30;97762.47;;;9.74;46.01
73171;BME280;61381;50.118;19.962;2023-12-20T02:21:33;97754.81;;;9.81;46.34
73171;BME280;61381;50.118;19.962;2023-12-20T02:26:34;97756.91;;;9.71;45.38
73171;BME280;61381;50.118;19.962;2023-12-20T02:31:35;97757.72;;;9.85;45.31
73171;BME280;61381;50.118;19.962;2023-12-20T02:36:37;97754.16;;;9.90;45.89
73171;BME280;61381;50.118;19.962;2023-12-20T02:41:38;97754.03;;;9.67;45.06
73171;BME280;61381;50.118;19.962;2023-12-20T02:46:39;97749.88;;;9.89;44.87
73171;BME280;61381;50.118;19.962;2023-12-20T02:51:41;97752.25;;;9.62;44.33
73171;BME280;61381;50.118;19.962;2023-12-20T02:56:42;97749.97;;;9.56;44.97
73171;BME280;61381;50.118;19.962;2023-12-20T03:01:44;97749.47;;;9.54;45.15
73171;BME280;61381;50.118;19.962;2023-12-20T03:06:47;97752.84;;;9.73;44.47
73171;BME280;61381;50.118;19.962;2023-12-20T03:11:47;97765.00;;;9.38;45.62
73171;BME280;61381;50.118;19.962;2023-12-20T03:16:49;97758.66;;;9.48;46.12
73171;BME280;61381;50.118;19.962;2023-12-20T03:21:51;97747.31;;;9.56;46.41
73171;BME280;61381;50.118;19.962;2023-12-20T03:26:52;97738.56;;;9.92;45.32
73171;BME280;61381;50.118;19.962;2023-12-20T03:31:52;97744.63;;;10.11;44.20
73171;BME280;61381;50.118;19.962;2023-12-20T03:36:55;97754.69;;;10.28;44.98
73171;BME280;61381;50.118;19.962;2023-12-20T03:41:56;97773.03;;;10.21;44.48
73171;BME280;61381;50.118;19.962;2023-12-20T03:46:57;97758.66;;;10.31;44.70
73171;BME280;61381;50.118;19.962;2023-12-20T03:51:59;97762.09;;;10.59;44.17
73171;BME280;61381;50.118;19.962;2023-12-20T03:57:00;97750.72;;;10.26;44.73
73171;BME280;61381;50.118;19.962;2023-12-20T04:02:01;97749.94;;;10.76;42.82
73171;BME280;61381;50.118;19.962;2023-12-20T04:07:03;97738.06;;;10.91;43.31
73171;BME280;61381;50.118;19.962;2023-12-20T04:12:05;97746.06;;;10.31;42.99
73171;BME280;61381;50.118;19.962;2023-12-20T04:17:05;97743.22;;;10.14;43.00
73171;BME280;61381;50.118;19.962;2023-12-20T04:22:08;97740.13;;;10.34;42.24
73171;BME280;61381;50.118;19.962;2023-12-20T04:27:09;97749.13;;;10.52;41.08
73171;BME280;61381;50.118;19.962;2023-12-20T04:32:10;97749.63;;;10.77;41.77
73171;BME280;61381;50.118;19.962;2023-12-20T04:37:12;97759.06;;;10.75;42.20
73171;BME280;61381;50.118;19.962;2023-12-20T04:42:13;97753.41;;;10.26;44.43
73171;BME280;61381;50.118;19.962;2023-12-20T04:47:14;97758.59;;;10.08;48.59
73171;BME280;61381;50.118;19.962;2023-12-20T04:52:16;97759.38;;;10.09;49.83
73171;BME280;61381;50.118;19.962;2023-12-20T04:57:17;97748.78;;;9.62;54.40
73171;BME280;61381;50.118;19.962;2023-12-20T05:02:18;97757.72;;;9.71;57.08
73171;BME280;61381;50.118;19.962;2023-12-20T05:07:20;97738.47;;;9.41;61.57
73171;BME280;61381;50.118;19.962;2023-12-20T05:12:21;97752.91;;;9.26;64.89
73171;BME280;61381;50.118;19.962;2023-12-20T05:17:22;97748.25;;;9.32;68.05
73171;BME280;61381;50.118;19.962;2023-12-20T05:22:24;97739.66;;;9.02;73.31
73171;BME280;61381;50.118;19.962;2023-12-20T05:27:25;97743.56;;;8.58;75.89
73171;BME280;61381;50.118;19.962;2023-12-20T05:32:26;97734.72;;;8.77;78.94
73171;BME280;61381;50.118;19.962;2023-12-20T05:37:28;97730.56;;;8.51;80.21
73171;BME280;61381;50.118;19.962;2023-12-20T05:42:29;97735.72;;;8.43;81.96
73171;BME280;61381;50.118;19.962;2023-12-20T05:47:30;97736.47;;;8.48;83.06
73171;BME280;61381;50.118;19.962;2023-12-20T05:52:32;97730.56;;;8.70;83.33
73171;BME280;61381;50.118;19.962;2023-12-20T05:57:33;97735.25;;;8.60;84.80
73171;BME280;61381;50.118;19.962;2023-12-20T06:02:34;97734.34;;;8.26;86.74
73171;BME280;61381;50.118;19.962;2023-12-20T06:07:36;97740.88;;;8.58;85.94
73171;BME280;61381;50.118;19.962;2023-12-20T06:12:37;97742.16;;;8.23;87.50
73171;BME280;61381;50.118;19.962;2023-12-20T06:17:37;97756.41;;;8.56;86.79
73171;BME280;61381;50.118;19.962;2023-12-20T06:22:40;97753.88;;;8.21;88.93
73171;BME280;61381;50.118;19.962;2023-12-20T06:27:40;97750.28;;;8.12;89.35
73171;BME280;61381;50.118;19.962;2023-12-20T06:32:41;97757.69;;;8.59;88.55
73171;BME280;61381;50.118;19.962;2023-12-20T06:37:43;97744.66;;;8.14;91.05
73171;BME280;61381;50.118;19.962;2023-12-20T06:42:44;97755.00;;;7.96;93.45
73171;BME280;61381;50.118;19.962;2023-12-20T06:47:45;97741.63;;;8.20;93.16
73171;BME280;61381;50.118;19.962;2023-12-20T06:52:47;97737.28;;;8.06;93.90
73171;BME280;61381;50.118;19.962;2023-12-20T06:57:48;97743.34;;;8.11;93.52
73171;BME280;61381;50.118;19.962;2023-12-20T07:02:49;97734.59;;;7.38;96.70
73171;BME280;61381;50.118;19.962;2023-12-20T07:07:51;97741.81;;;8.05;95.03
73171;BME280;61381;50.118;19.962;2023-12-20T07:12:52;97732.31;;;7.75;96.45
73171;BME280;61381;50.118;19.962;2023-12-20T07:17:53;97735.25;;;7.73;96.97
73171;BME280;61381;50.118;19.962;2023-12-20T07:22:55;97742.94;;;7.80;97.21
73171;BME280;61381;50.118;19.962;2023-12-20T07:27:56;97740.38;;;7.70;97.20
73171;BME280;61381;50.118;19.962;2023-12-20T07:32:57;97735.69;;;7.61;97.45
73171;BME280;61381;50.118;19.962;2023-12-20T07:37:59;97747.41;;;8.09;96.57
73171;BME280;61381;50.118;19.962;2023-12-20T07:43:00;97748.72;;;7.63;97.79
73171;BME280;61381;50.118;19.962;2023-12-20T07:48:00;97749.69;;;7.72;96.49
73171;BME280;61381;50.118;19.962;2023-12-20T07:53:03;97770.03;;;8.11;96.23
73171;BME280;61381;50.118;19.962;2023-12-20T07:58:04;97754.19;;;7.96;95.87
73171;BME280;61381;50.118;19.962;2023-12-20T08:03:04;97763.59;;;7.69;97.92
73171;BME280;61381;50.118;19.962;2023-12-20T08:08:07;97766.53;;;7.92;98.07
73171;BME280;61381;50.118;19.962;2023-12-20T08:13:08;97761.88;;;7.78;97.41
73171;BME280;61381;50.118;19.962;2023-12-20T08:18:09;97776.25;;;8.26;95.62
73171;BME280;61381;50.118;19.962;2023-12-20T08:23:12;97770.16;;;7.77;96.85
73171;BME280;61381;50.118;19.962;2023-12-20T08:28:13;97771.59;;;7.93;96.54
73171;BME280;61381;50.118;19.962;2023-12-20T08:33:14;97766.06;;;8.09;95.60
73171;BME280;61381;50.118;19.962;2023-12-20T08:38:16;97767.69;;;7.56;97.39
73171;BME280;61381;50.118;19.962;2023-12-20T08:43:17;97769.19;;;7.09;99.86
73171;BME280;61381;50.118;19.962;2023-12-20T08:48:17;97759.84;;;7.41;99.32
73171;BME280;61381;50.118;19.962;2023-12-20T08:53:20;97753.75;;;7.64;98.77
73171;BME280;61381;50.118;19.962;2023-12-20T08:58:20;97769.34;;;8.00;96.98
73171;BME280;61381;50.118;19.962;2023-12-20T09:03:21;97769.47;;;7.66;98.62
73171;BME280;61381;50.118;19.962;2023-12-20T09:08:23;97779.22;;;8.24;96.04
73171;BME280;61381;50.118;19.962;2023-12-20T09:13:24;97769.84;;;7.54;98.80
73171;BME280;61381;50.118;19.962;2023-12-20T09:18:25;97761.91;;;7.73;98.36
73171;BME280;61381;50.118;19.962;2023-12-20T09:23:27;97766.13;;;7.79;99.21
73171;BME280;61381;50.118;19.962;2023-12-20T09:28:28;97759.88;;;7.65;98.68
73171;BME280;61381;50.118;19.962;2023-12-20T09:33:29;97751.78;;;7.51;100.00
73171;BME280;61381;50.118;19.962;2023-12-20T09:38:31;97749.63;;;7.77;98.75
73171;BME280;61381;50.118;19.962;2023-12-20T09:43:35;97743.53;;;7.72;98.91
73171;BME280;61381;50.118;19.962;2023-12-20T09:48:38;97742.69;;;7.76;99.26
73171;BME280;61381;50.118;19.962;2023-12-20T09:53:42;97729.41;;;7.47;98.65
73171;BME280;61381;50.118;19.962;2023-12-20T09:58:43;97725.22;;;7.65;99.04
73171;BME280;61381;50.118;19.962;2023-12-20T10:03:44;97718.19;;;7.50;100.00
73171;BME280;61381;50.118;19.962;2023-12-20T10:08:46;97718.75;;;7.71;99.87
73171;BME280;61381;50.118;19.962;2023-12-20T10:13:48;97712.06;;;7.74;97.65
73171;BME280;61381;50.118;19.962;2023-12-20T10:18:49;97714.06;;;7.39;98.54
73171;BME280;61381;50.118;19.962;2023-12-20T10:23:51;97710.66;;;7.57;98.72
73171;BME280;61381;50.118;19.962;2023-12-20T10:28:53;97720.28;;;7.29;100.00
73171;BME280;61381;50.118;19.962;2023-12-20T10:33:56;97718.66;;;7.57;99.52
73171;BME280;61381;50.118;19.962;2023-12-20T10:38:59;97703.22;;;7.78;98.06
73171;BME280;61381;50.118;19.962;2023-12-20T10:44:01;97713.78;;;7.40;98.23
73171;BME280;61381;50.118;19.962;2023-12-20T10:49:02;97699.44;;;7.07;99.36
73171;BME280;61381;50.118;19.962;2023-12-20T10:54:05;97694.19;;;7.50;99.24
73171;BME280;61381;50.118;19.962;2023-12-20T10:59:07;97693.63;;;7.53;99.74
73171;BME280;61381;50.118;19.962;2023-12-20T11:04:15;97697.84;;;7.59;100.00
73171;BME280;61381;50.118;19.962;2023-12-20T11:09:24;97694.78;;;7.71;100.00
73171;BME280;61381;50.118;19.962;2023-12-20T11:14:31;97697.06;;;7.78;98.92
73171;BME280;61381;50.118;19.962;2023-12-20T11:20:04;97692.41;;;7.89;98.81
73171;BME280;61381;50.118;19.962;2023-12-20T11:25:07;97691.13;;;7.86;98.39
73171;BME280;61381;50.118;19.962;2023-12-20T11:30:09;97697.53;;;7.85;99.28
73171;BME280;61381;50.118;19.962;2023-12-20T11:35:18;97689.38;;;7.76;100.00
73171;BME280;61381;50.118;19.962;2023-12-20T11:40:23;97678.75;;;8.14;98.78
73171;BME280;61381;50.118;19.962;2023-12-20T11:45:24;97678.75;;;7.95;99.84
73171;BME280;61381;50.118;19.962;2023-12-20T11:50:25;97684.38;;;7.94;100.00
73171;BME280;61381;50.118;19.962;2023-12-20T11:55:28;97671.03;;;7.94;100.00
73171;BME280;61381;50.118;19.962;2023-12-20T12:00:28;97676.84;;;7.77;100.00
73171;BME280;61381;50.118;19.962;2023-12-20T12:05:30;97676.09;;;8.33;99.50
73171;BME280;61381;50.118;19.962;2023-12-20T12:10:33;97674.19;;;7.77;100.00
73171;BME280;61381;50.118;19.962;2023-12-20T12:15:34;97677.41;;;8.55;97.52
73171;BME280;61381;50.118;19.962;2023-12-20T12:20:34;97674.94;;;8.39;97.46
73171;BME280;61381;50.118;19.962;2023-12-20T12:25:37;97677.97;;;8.52;96.75
73171;BME280;61381;50.118;19.962;2023-12-20T12:30:38;97668.38;;;8.32;96.59
73171;BME280;61381;50.118;19.962;2023-12-20T12:35:40;97673.91;;;8.35;95.06
73171;BME280;61381;50.118;19.962;2023-12-20T12:40:43;97678.47;;;8.35;96.09
73171;BME280;61381;50.118;19.962;2023-12-20T12:45:44;97674.06;;;8.06;97.14
73171;BME280;61381;50.118;19.962;2023-12-20T12:50:45;97678.81;;;8.28;97.38
73171;BME280;61381;50.118;19.962;2023-12-20T12:55:48;97662.41;;;8.21;96.85
73171;BME280;61381;50.118;19.962;2023-12-20T13:00:48;97681.16;;;7.73;99.37
73171;BME280;61381;50.118;19.962;2023-12-20T13:05:49;97664.41;;;7.67;100.00
73171;BME280;61381;50.118;19.962;2023-12-20T13:10:52;97663.53;;;7.96;99.01
73171;BME280;61381;50.118;19.962;2023-12-20T13:15:53;97680.63;;;7.95;97.74
73171;BME280;61381;50.118;19.962;2023-12-20T13:20:53;97686.66;;;8.00;98.35
73171;BME280;61381;50.118;19.962;2023-12-20T13:25:56;97694.31;;;8.26;97.47
73171;BME280;61381;50.118;19.962;2023-12-20T13:30:57;97697.13;;;8.16;96.86
73171;BME280;61381;50.118;19.962;2023-12-20T13:35:57;97682.06;;;8.06;96.77
73171;BME280;61381;50.118;19.962;2023-12-20T13:41:00;97691.88;;;8.30;95.74
73171;BME280;61381;50.118;19.962;2023-12-20T13:46:01;97694.09;;;8.42;94.35
73171;BME280;61381;50.118;19.962;2023-12-20T13:51:02;97690.75;;;7.74;97.28
73171;BME280;61381;50.118;19.962;2023-12-20T13:56:05;97692.09;;;8.33;95.64
73171;BME280;61381;50.118;19.962;2023-12-20T14:01:06;97697.00;;;8.07;96.06
73171;BME280;61381;50.118;19.962;2023-12-20T14:06:07;97684.03;;;8.19;94.39
73171;BME280;61381;50.118;19.962;2023-12-20T14:11:09;97681.28;;;8.06;95.25
73171;BME280;61381;50.118;19.962;2023-12-20T14:16:10;97698.38;;;8.62;91.25
73171;BME280;61381;50.118;19.962;2023-12-20T14:21:11;97686.75;;;8.33;91.76
73171;BME280;61381;50.118;19.962;2023-12-20T14:26:13;97684.47;;;8.46;90.26
73171;BME280;61381;50.118;19.962;2023-12-20T14:31:14;97686.38;;;8.78;88.15
73171;BME280;61381;50.118;19.962;2023-12-20T14:36:15;97688.63;;;9.04;87.95
73171;BME280;61381;50.118;19.962;2023-12-20T14:41:17;97688.25;;;8.78;88.27
73171;BME280;61381;50.118;19.962;2023-12-20T14:46:17;97694.66;;;8.00;91.80
73171;BME280;61381;50.118;19.962;2023-12-20T14:51:19;97681.69;;;8.13;91.50
73171;BME280;61381;50.118;19.962;2023-12-20T14:56:21;97702.38;;;9.11;87.65
73171;BME280;61381;50.118;19.962;2023-12-20T15:01:23;97700.50;;;8.46;91.23
73171;BME280;61381;50.118;19.962;2023-12-20T15:06:24;97688.34;;;8.34;90.67
73171;BME280;61381;50.118;19.962;2023-12-20T15:11:26;97688.78;;;8.42;91.58
73171;BME280;61381;50.118;19.962;2023-12-20T15:16:27;97687.81;;;7.94;93.29
73171;BME280;61381;50.118;19.962;2023-12-20T15:21:28;97688.72;;;8.28;92.67
73171;BME280;61381;50.118;19.962;2023-12-20T15:26:30;97694.53;;;8.11;94.37
73171;BME280;61381;50.118;19.962;2023-12-20T15:31:31;97710.03;;;8.28;92.46
73171;BME280;61381;50.118;19.962;2023-12-20T15:36:32;97701.91;;;7.76;94.47
73171;BME280;61381;50.118;19.962;2023-12-20T15:41:34;97699.34;;;7.90;93.89
73171;BME280;61381;50.118;19.962;2023-12-20T15:46:35;97689.34;;;7.57;94.83
73171;BME280;61381;50.118;19.962;2023-12-20T15:51:36;97696.19;;;7.63;94.83
73171;BME280;61381;50.118;19.962;2023-12-20T15:56:38;97694.06;;;7.41;95.59
73171;BME280;61381;50.118;19.962;2023-12-20T16:01:39;97685.53;;;7.39;95.89
73171;BME280;61381;50.118;19.962;2023-12-20T16:06:40;97691.56;;;7.26;96.18
73171;BME280;61381;50.118;19.962;2023-12-20T16:11:43;97695.31;;;7.49;95.60
73171;BME280;61381;50.118;19.962;2023-12-20T16:16:44;97703.91;;;7.41;95.06
73171;BME280;61381;50.118;19.962;2023-12-20T16:21:45;97693.97;;;7.22;95.66
73171;BME280;61381;50.118;19.962;2023-12-20T16:26:47;97700.91;;;7.23;96.26
73171;BME280;61381;50.118;19.962;2023-12-20T16:31:48;97685.91;;;7.03;96.92
73171;BME280;61381;50.118;19.962;2023-12-20T16:36:50;97694.63;;;7.09;96.52
73171;BME280;61381;50.118;19.962;2023-12-20T16:41:52;97686.47;;;7.00;98.24
73171;BME280;61381;50.118;19.962;2023-12-20T16:46:53;97697.19;;;7.19;96.82
73171;BME280;61381;50.118;19.962;2023-12-20T16:51:54;97684.78;;;7.09;96.88
73171;BME280;61381;50.118;19.962;2023-12-20T16:56:56;97694.44;;;6.71;98.31
73171;BME280;61381;50.118;19.962;2023-12-20T17:01:57;97691.66;;;6.81;96.71
73171;BME280;61381;50.118;19.962;2023-12-20T17:06:58;97689.13;;;7.00;96.13
73171;BME280;61381;50.118;19.962;2023-12-20T17:12:00;97677.91;;;6.74;97.74
73171;BME280;61381;50.118;19.962;2023-12-20T17:17:01;97678.09;;;6.83;96.61
73171;BME280;61381;50.118;19.962;2023-12-20T17:22:02;97677.00;;;7.13;95.06
73171;BME280;61381;50.118;19.962;2023-12-20T17:27:05;97677.78;;;6.89;95.68
73171;BME280;61381;50.118;19.962;2023-12-20T17:32:06;97666.72;;;6.77;95.87
73171;BME280;61381;50.118;19.962;2023-12-20T17:37:07;97665.34;;;6.79;95.12
73171;BME280;61381;50.118;19.962;2023-12-20T17:42:10;97657.91;;;6.76;94.70
73171;BME280;61381;50.118;19.962;2023-12-20T17:47:10;97678.19;;;6.72;94.61
73171;BME280;61381;50.118;19.962;2023-12-20T17:52:11;97669.81;;;6.84;93.54
73171;BME280;61381;50.118;19.962;2023-12-20T17:57:13;97669.81;;;7.13;92.21
73171;BME280;61381;50.118;19.962;2023-12-20T18:02:14;97668.41;;;6.92;93.00
73171;BME280;61381;50.118;19.962;2023-12-20T18:07:15;97666.59;;;6.87;92.89
73171;BME280;61381;50.118;19.962;2023-12-20T18:12:17;97654.25;;;6.96;92.38
73171;BME280;61381;50.118;19.962;2023-12-20T18:17:19;97661.03;;;6.84;92.49
73171;BME280;61381;50.118;19.962;2023-12-20T18:22:20;97677.06;;;7.08;90.57
73171;BME280;61381;50.118;19.962;2023-12-20T18:27:22;97673.66;;;7.02;91.31
73171;BME280;61381;50.118;19.962;2023-12-20T18:32:23;97676.56;;;7.30;89.84
73171;BME280;61381;50.118;19.962;2023-12-20T18:37:24;97661.22;;;7.46;88.58
73171;BME280;61381;50.118;19.962;2023-12-20T18:42:26;97660.38;;;7.26;88.66
73171;BME280;61381;50.118;19.962;2023-12-20T18:47:27;97663.88;;;7.46;89.52
73171;BME280;61381;50.118;19.962;2023-12-20T18:52:28;97664.13;;;7.68;87.14
73171;BME280;61381;50.118;19.962;2023-12-20T18:57:30;97663.25;;;7.54;86.73
73171;BME280;61381;50.118;19.962;2023-12-20T19:02:31;97670.31;;;7.64;87.01
73171;BME280;61381;50.118;19.962;2023-12-20T19:07:33;97675.28;;;7.27;87.81
73171;BME280;61381;50.118;19.962;2023-12-20T19:12:35;97676.13;;;7.47;86.07
73171;BME280;61381;50.118;19.962;2023-12-20T19:17:36;97675.31;;;7.71;85.25
73171;BME280;61381;50.118;19.962;2023-12-20T19:22:36;97686.31;;;7.64;85.65
73171;BME280;61381;50.118;19.962;2023-12-20T19:27:39;97680.13;;;7.68;84.21
73171;BME280;61381;50.118;19.962;2023-12-20T19:32:40;97678.84;;;7.66;84.38
73171;BME280;61381;50.118;19.962;2023-12-20T19:37:40;97663.81;;;7.75;82.63
73171;BME280;61381;50.118;19.962;2023-12-20T19:42:43;97653.06;;;7.80;82.34
73171;BME280;61381;50.118;19.962;2023-12-20T19:47:47;97625.53;;;7.85;81.88
73171;BME280;61381;50.118;19.962;2023-12-20T19:52:48;97628.31;;;7.56;82.00
73171;BME280;61381;50.118;19.962;2023-12-20T19:57:51;97646.03;;;7.65;81.90
73171;BME280;61381;50.118;19.962;2023-12-20T20:02:52;97657.34;;;7.33;82.19
73171;BME280;61381;50.118;19.962;2023-12-20T20:07:53;97653.44;;;7.49;82.25
73171;BME280;61381;50.118;19.962;2023-12-20T20:12:55;97645.72;;;7.48;81.77
73171;BME280;61381;50.118;19.962;2023-12-20T20:17:56;97639.75;;;7.56;81.20
73171;BME280;61381;50.118;19.962;2023-12-20T20:22:57;97651.19;;;7.38;81.26
73171;BME280;61381;50.118;19.962;2023-12-20T20:27:59;97645.00;;;7.42;80.94
73171;BME280;61381;50.118;19.962;2023-12-20T20:33:00;97637.47;;;7.25;81.61
73171;BME280;61381;50.118;19.962;2023-12-20T20:38:01;97659.81;;;7.54;79.43
73171;BME280;61381;50.118;19.962;2023-12-20T20:43:03;97660.63;;;7.73;78.77
73171;BME280;61381;50.118;19.962;2023-12-20T20:48:05;97647.56;;;7.72;80.24
73171;BME280;61381;50.118;19.962;2023-12-20T20:53:06;97649.59;;;7.37;81.01
73171;BME280;61381;50.118;19.962;2023-12-20T20:58:08;97648.81;;;7.79;80.46
73171;BME280;61381;50.118;19.962;2023-12-20T21:03:09;97636.47;;;7.64;81.00
73171;BME280;61381;50.118;19.962;2023-12-20T21:08:10;97641.38;;;7.57;78.71
73171;BME280;61381;50.118;19.962;2023-12-20T21:13:12;97650.97;;;7.77;79.31
73171;BME280;61381;50.118;19.962;2023-12-20T21:18:13;97650.31;;;7.18;80.05
73171;BME280;61381;50.118;19.962;2023-12-20T21:23:15;97651.56;;;7.50;80.10
73171;BME280;61381;50.118;19.962;2023-12-20T21:28:18;97643.88;;;7.24;79.87
73171;BME280;61381;50.118;19.962;2023-12-20T21:33:19;97632.47;;;7.19;80.45
73171;BME280;61381;50.118;19.962;2023-12-20T21:38:20;97623.16;;;6.92;81.39
73171;BME280;61381;50.118;19.962;2023-12-20T21:43:22;97623.84;;;7.27;80.36
73171;BME280;61381;50.118;19.962;2023-12-20T21:48:23;97613.34;;;6.87;81.55
73171;BME280;61381;50.118;19.962;2023-12-20T21:53:24;97616.25;;;7.15;80.31
73171;BME280;61381;50.118;19.962;2023-12-20T21:58:26;97632.19;;;7.20;80.67
73171;BME280;61381;50.118;19.962;2023-12-20T22:03:27;97630.88;;;7.18;80.32
73171;BME280;61381;50.118;19.962;2023-12-20T22:08:28;97624.41;;;7.00;80.76
73171;BME280;61381;50.118;19.962;2023-12-20T22:13:30;97630.31;;;7.21;80.15
73171;BME280;61381;50.118;19.962;2023-12-20T22:18:31;97614.88;;;6.93;80.96
73171;BME280;61381;50.118;19.962;2023-12-20T22:23:32;97620.59;;;7.11;80.80
73171;BME280;61381;50.118;19.962;2023-12-20T22:28:34;97613.44;;;7.30;79.88
73171;BME280;61381;50.118;19.962;2023-12-20T22:33:35;97620.88;;;7.09;79.84
73171;BME280;61381;50.118;19.962;2023-12-20T22:38:37;97622.00;;;7.27;79.34
73171;BME280;61381;50.118;19.962;2023-12-20T22:43:40;97622.50;;;7.54;79.10
73171;BME280;61381;50.118;19.962;2023-12-20T22:48:41;97619.50;;;7.36;79.29
73171;BME280;61381;50.118;19.962;2023-12-20T22:53:42;97613.19;;;7.51;78.38
73171;BME280;61381;50.118;19.962;2023-12-20T22:58:44;97597.69;;;7.53;78.92
73171;BME280;61381;50.118;19.962;2023-12-20T23:03:45;97593.78;;;7.45;79.53
73171;BME280;61381;50.118;19.962;2023-12-20T23:08:46;97575.66;;;7.47;80.92
73171;BME280;61381;50.118;19.962;2023-12-20T23:13:49;97577.03;;;7.64;79.43
73171;BME280;61381;50.118;19.962;2023-12-20T23:18:50;97573.78;;;7.48;79.40
73171;BME280;61381;50.118;19.962;2023-12-20T23:23:50;97570.97;;;7.39;80.31
73171;BME280;61381;50.118;19.962;2023-12-20T23:28:53;97574.06;;;8.03;79.05
73171;BME280;61381;50.118;19.962;2023-12-20T23:33:53;97564.66;;;7.92;78.44
73171;BME280;61381;50.118;19.962;2023-12-20T23:38:54;97559.47;;;7.63;79.44
73171;BME280;61381;50.118;19.962;2023-12-20T23:43:56;97553.50;;;7.52;80.58
73171;BME280;61381;50.118;19.962;2023-12-20T23:48:57;97551.91;;;7.51;79.51
73171;BME280;61381;50.118;19.962;2023-12-20T23:53:58;97545.47;;;7.33;80.40
73171;BME280;61381;50.118;19.962;2023-12-20T23:59:00;97551.16;;;7.83;79.77
